createdAt,value
2023-05-03T00:00:23.023Z,67
2023-05-03T00:01:29.913Z,62
2023-05-03T00:02:36.862Z,66
2023-05-03T00:03:43.634Z,65
2023-05-03T00:04:50.497Z,64
2023-05-03T00:05:57.342Z,67
2023-05-03T00:07:12.321Z,62
2023-05-03T00:08:19.137Z,65
2023-05-03T00:09:25.958Z,62
2023-05-03T00:10:32.730Z,65
2023-05-03T00:11:39.549Z,66
2023-05-03T00:12:46.348Z,60
2023-05-03T00:13:53.165Z,66
2023-05-03T00:14:59.959Z,62
2023-05-03T00:16:06.789Z,67
2023-05-03T00:17:13.631Z,66
2023-05-03T00:18:20.392Z,66
2023-05-03T00:19:31.318Z,59
2023-05-03T00:20:34.075Z,56
2023-05-03T00:21:40.773Z,67
2023-05-03T00:22:47.616Z,68
2023-05-03T00:23:54.444Z,69
2023-05-03T00:25:01.280Z,66
2023-05-03T00:26:08.232Z,64
2023-05-03T00:27:15.005Z,64
2023-05-03T00:28:21.811Z,67
2023-05-03T00:29:28.633Z,66
2023-05-03T00:30:35.403Z,69
2023-05-03T00:31:42.330Z,61
2023-05-03T00:32:49.002Z,68
2023-05-03T00:33:55.899Z,71
2023-05-03T00:35:02.715Z,71
2023-05-03T00:36:09.837Z,67
2023-05-03T00:37:16.732Z,70
2023-05-03T00:38:23.620Z,71
2023-05-03T00:39:30.374Z,72
2023-05-03T00:40:37.199Z,68
2023-05-03T00:41:44.000Z,69
2023-05-03T00:42:51.057Z,59
2023-05-03T00:43:57.898Z,67
2023-05-03T00:45:04.750Z,62
2023-05-03T00:46:17.059Z,66
2023-05-03T00:47:18.464Z,63
2023-05-03T00:48:25.193Z,63
2023-05-03T00:49:31.982Z,63
2023-05-03T00:50:38.786Z,56
2023-05-03T00:51:45.520Z,62
2023-05-03T00:52:52.323Z,63
2023-05-03T00:53:59.092Z,55
2023-05-03T00:55:05.899Z,62
2023-05-03T00:56:12.848Z,64
2023-05-03T00:57:19.707Z,64
2023-05-03T00:58:26.466Z,62
2023-05-03T00:59:33.257Z,62
2023-05-03T01:00:40.016Z,65
2023-05-03T01:01:46.977Z,62
2023-05-03T01:02:56.652Z,58
2023-05-03T01:04:03.424Z,62
2023-05-03T01:05:10.134Z,62
2023-05-03T01:06:16.964Z,66
2023-05-03T01:07:34.072Z,60
2023-05-03T01:08:46.127Z,55
2023-05-03T01:10:03.609Z,60
2023-05-03T01:11:20.420Z,65
2023-05-03T01:12:27.234Z,64
2023-05-03T01:13:34.042Z,59
2023-05-03T01:14:46.025Z,61
2023-05-03T01:16:03.236Z,58
2023-05-03T01:17:10.002Z,56
2023-05-03T01:18:16.816Z,56
2023-05-03T01:19:26.398Z,50
2023-05-03T01:20:33.182Z,53
2023-05-03T01:21:39.974Z,53
2023-05-03T01:22:46.845Z,55
2023-05-03T01:24:01.898Z,53
2023-05-03T01:25:11.550Z,55
2023-05-03T01:26:18.254Z,56
2023-05-03T01:27:27.953Z,53
2023-05-03T01:28:34.903Z,56
2023-05-03T01:29:41.683Z,56
2023-05-03T01:30:48.490Z,51
2023-05-03T01:31:55.267Z,57
2023-05-03T01:33:05.080Z,57
2023-05-03T01:34:14.815Z,55
2023-05-03T01:35:26.713Z,56
2023-05-03T01:36:43.867Z,56
2023-05-03T01:37:50.647Z,51
2023-05-03T01:38:58.424Z,56
2023-05-03T01:40:08.038Z,57
2023-05-03T01:41:14.816Z,55
2023-05-03T01:42:21.616Z,56
2023-05-03T01:43:28.379Z,56
2023-05-03T01:44:35.215Z,54
2023-05-03T01:45:42.053Z,53
2023-05-03T01:46:48.776Z,57
2023-05-03T01:47:55.568Z,63
2023-05-03T01:49:02.365Z,61
2023-05-03T01:50:09.048Z,55
2023-05-03T01:51:21.020Z,55
2023-05-03T01:52:27.953Z,56
2023-05-03T01:53:34.704Z,54
2023-05-03T01:54:41.477Z,56
2023-05-03T01:55:48.250Z,60
2023-05-03T01:56:54.988Z,60
2023-05-03T01:58:01.761Z,55
2023-05-03T01:59:08.591Z,58
2023-05-03T02:00:15.325Z,62
2023-05-03T02:01:22.332Z,53
2023-05-03T02:02:29.048Z,52
2023-05-03T02:03:35.913Z,59
2023-05-03T02:04:42.777Z,54
2023-05-03T02:05:49.315Z,54
2023-05-03T02:06:56.120Z,56
2023-05-03T02:08:02.848Z,54
2023-05-03T02:09:09.631Z,49
2023-05-03T02:10:16.428Z,58
2023-05-03T02:11:23.161Z,55
2023-05-03T02:12:29.937Z,57
2023-05-03T02:13:36.783Z,55
2023-05-03T02:14:43.555Z,50
2023-05-03T02:15:50.290Z,49
2023-05-03T02:16:57.123Z,56
2023-05-03T02:18:03.992Z,52
2023-05-03T02:19:10.632Z,56
2023-05-03T02:20:17.475Z,55
2023-05-03T02:21:24.192Z,48
2023-05-03T02:22:30.964Z,47
2023-05-03T02:23:37.693Z,48
2023-05-03T02:24:44.476Z,46
2023-05-03T02:25:51.236Z,46
2023-05-03T02:26:58.031Z,46
2023-05-03T02:28:04.808Z,45
2023-05-03T02:29:11.628Z,40
2023-05-03T02:30:18.358Z,38
2023-05-03T02:31:25.184Z,36
2023-05-03T02:32:31.965Z,29
2023-05-03T02:33:38.908Z,29
2023-05-03T02:34:45.666Z,36
2023-05-03T02:35:52.465Z,30
2023-05-03T02:36:59.257Z,36
2023-05-03T02:38:05.979Z,36
2023-05-03T02:39:12.746Z,29
2023-05-03T02:40:19.514Z,38
2023-05-03T02:41:26.274Z,34
2023-05-03T02:42:33.043Z,31
2023-05-03T02:43:39.850Z,26
2023-05-03T02:44:46.811Z,30
2023-05-03T02:45:53.584Z,30
2023-05-03T02:47:00.356Z,31
2023-05-03T02:48:07.243Z,35
2023-05-03T02:49:14.147Z,29
2023-05-03T02:50:20.945Z,35
2023-05-03T02:51:28.011Z,34
2023-05-03T02:52:34.763Z,34
2023-05-03T02:53:41.577Z,34
2023-05-03T02:54:48.324Z,28
2023-05-03T02:55:55.142Z,32
2023-05-03T02:57:01.944Z,41
2023-05-03T02:58:08.796Z,41
2023-05-03T02:59:15.547Z,35
2023-05-03T03:00:22.275Z,36
2023-05-03T03:01:29.060Z,39
2023-05-03T03:02:38.593Z,42
2023-05-03T03:03:45.514Z,43
2023-05-03T03:04:52.057Z,37
2023-05-03T03:05:58.832Z,40
2023-05-03T03:07:05.597Z,39
2023-05-03T03:08:12.373Z,43
2023-05-03T03:09:19.147Z,43
2023-05-03T03:10:26.053Z,34
2023-05-03T03:11:32.832Z,40
2023-05-03T03:12:39.623Z,38
2023-05-03T03:13:46.421Z,43
2023-05-03T03:14:53.219Z,41
2023-05-03T03:16:00.027Z,42
2023-05-03T03:17:06.885Z,42
2023-05-03T03:18:13.695Z,35
2023-05-03T03:19:20.589Z,37
2023-05-03T03:20:27.372Z,40
2023-05-03T03:21:34.330Z,42
2023-05-03T03:22:41.205Z,39
2023-05-03T03:23:47.966Z,44
2023-05-03T03:24:54.816Z,46
2023-05-03T03:26:01.633Z,43
2023-05-03T03:27:08.466Z,44
2023-05-03T03:28:15.226Z,45
2023-05-03T03:29:22.019Z,45
2023-05-03T03:30:28.826Z,45
2023-05-03T03:31:35.652Z,46
2023-05-03T03:32:42.465Z,49
2023-05-03T03:33:49.244Z,44
2023-05-03T03:34:56.013Z,48
2023-05-03T03:36:02.747Z,49
2023-05-03T03:37:09.668Z,53
2023-05-03T03:38:16.437Z,60
2023-05-03T03:39:23.308Z,61
2023-05-03T03:40:30.078Z,59
2023-05-03T03:41:36.896Z,54
2023-05-03T03:42:43.674Z,60
2023-05-03T03:43:50.478Z,63
2023-05-03T03:44:57.303Z,68
2023-05-03T03:46:04.253Z,60
2023-05-03T03:47:11.087Z,63
2023-05-03T03:48:17.887Z,71
2023-05-03T03:49:24.709Z,77
2023-05-03T03:50:31.605Z,70
2023-05-03T03:51:38.330Z,70
2023-05-03T03:52:45.138Z,69
2023-05-03T03:53:51.957Z,72
2023-05-03T03:54:58.684Z,69
2023-05-03T03:56:05.430Z,76
2023-05-03T03:57:12.354Z,67
2023-05-03T03:58:19.096Z,67
2023-05-03T03:59:25.860Z,67
2023-05-03T04:00:32.584Z,73
2023-05-03T04:01:42.223Z,72
2023-05-03T04:02:49.149Z,76
2023-05-03T04:03:55.880Z,71
2023-05-03T04:05:02.658Z,73
2023-05-03T04:06:09.590Z,70
2023-05-03T04:07:16.348Z,65
2023-05-03T04:08:23.087Z,64
2023-05-03T04:09:29.928Z,66
2023-05-03T04:10:36.698Z,69
2023-05-03T04:11:43.483Z,70
2023-05-03T04:12:50.204Z,72
2023-05-03T04:13:57.040Z,64
2023-05-03T04:15:03.795Z,70
2023-05-03T04:16:11.044Z,77
2023-05-03T04:17:17.818Z,78
2023-05-03T04:18:24.592Z,71
2023-05-03T04:19:31.387Z,68
2023-05-03T04:20:38.181Z,74
2023-05-03T04:21:44.920Z,74
2023-05-03T04:22:51.731Z,74
2023-05-03T04:23:58.535Z,82
2023-05-03T04:25:05.302Z,79
2023-05-03T04:26:20.152Z,75
2023-05-03T04:27:18.859Z,77
2023-05-03T04:28:25.587Z,74
2023-05-03T04:29:32.388Z,73
2023-05-03T04:30:39.201Z,80
2023-05-03T04:31:45.910Z,83
2023-05-03T04:32:52.683Z,77
2023-05-03T04:33:59.464Z,85
2023-05-03T04:35:06.210Z,82
2023-05-03T04:36:13.036Z,81
2023-05-03T04:37:19.741Z,85
2023-05-03T04:38:26.588Z,89
2023-05-03T04:39:33.356Z,81
2023-05-03T04:40:40.193Z,86
2023-05-03T04:41:46.953Z,95
2023-05-03T04:42:53.759Z,89
2023-05-03T04:44:00.567Z,86
2023-05-03T04:45:07.439Z,92
2023-05-03T04:46:14.409Z,94
2023-05-03T04:47:21.129Z,88
2023-05-03T04:48:27.895Z,103
2023-05-03T04:49:34.796Z,99
2023-05-03T04:50:41.519Z,97
2023-05-03T04:51:48.357Z,105
2023-05-03T04:52:55.120Z,106
2023-05-03T04:54:01.922Z,99
2023-05-03T04:55:08.722Z,105
2023-05-03T04:56:15.467Z,98
2023-05-03T04:57:22.182Z,108
2023-05-03T04:58:29.093Z,99
2023-05-03T04:59:35.893Z,106
2023-05-03T05:00:42.620Z,117
2023-05-03T05:01:49.425Z,105
2023-05-03T05:02:56.279Z,110
2023-05-03T05:04:02.964Z,100
2023-05-03T05:05:09.741Z,100
2023-05-03T05:06:16.564Z,113
2023-05-03T05:07:23.377Z,105
2023-05-03T05:08:30.226Z,99
2023-05-03T05:09:37.081Z,102
2023-05-03T05:10:43.925Z,98
2023-05-03T05:11:50.758Z,100
2023-05-03T05:12:57.508Z,94
2023-05-03T05:14:04.354Z,98
2023-05-03T05:15:11.098Z,91
2023-05-03T05:16:17.974Z,95
2023-05-03T05:17:24.704Z,96
2023-05-03T05:18:31.540Z,92
2023-05-03T05:19:38.272Z,86
2023-05-03T05:20:45.069Z,83
2023-05-03T05:21:51.800Z,86
2023-05-03T05:22:58.640Z,80
2023-05-03T05:24:05.360Z,73
2023-05-03T05:25:12.201Z,75
2023-05-03T05:26:18.996Z,72
2023-05-03T05:27:25.938Z,75
2023-05-03T05:28:32.494Z,65
2023-05-03T05:29:39.273Z,68
2023-05-03T05:30:46.067Z,64
2023-05-03T05:31:53.047Z,67
2023-05-03T05:32:59.704Z,59
2023-05-03T05:34:06.604Z,54
2023-05-03T05:35:13.809Z,55
2023-05-03T05:36:20.717Z,51
2023-05-03T05:37:27.504Z,61
2023-05-03T05:38:37.951Z,56
2023-05-03T05:39:44.963Z,51
2023-05-03T05:40:51.714Z,48
2023-05-03T05:41:58.540Z,49
2023-05-03T05:43:05.445Z,42
2023-05-03T05:44:12.388Z,37
2023-05-03T05:45:19.254Z,40
2023-05-03T05:46:26.203Z,30
2023-05-03T05:47:32.971Z,39
2023-05-03T05:48:39.779Z,32
2023-05-03T05:49:47.192Z,37
2023-05-03T05:50:54.221Z,33
2023-05-03T05:52:01.028Z,32
2023-05-03T05:53:07.958Z,30
2023-05-03T05:54:14.860Z,27
2023-05-03T05:55:21.702Z,26
2023-05-03T05:56:28.473Z,30
2023-05-03T05:57:39.109Z,30
2023-05-03T05:58:45.958Z,29
2023-05-03T05:59:53.303Z,28
2023-05-03T06:00:59.488Z,33
2023-05-03T06:02:06.306Z,28
2023-05-03T06:03:13.102Z,30
2023-05-03T06:04:19.857Z,30
2023-05-03T06:05:26.770Z,25
2023-05-03T06:06:33.620Z,44
2023-05-03T06:07:40.359Z,32
2023-05-03T06:08:47.109Z,25
2023-05-03T06:09:53.856Z,29
2023-05-03T06:11:00.639Z,28
2023-05-03T06:12:07.471Z,38
2023-05-03T06:13:14.208Z,31
2023-05-03T06:14:21.041Z,28
2023-05-03T06:15:27.718Z,29
2023-05-03T06:16:34.568Z,35
2023-05-03T06:17:41.368Z,26
2023-05-03T06:18:48.095Z,41
2023-05-03T06:19:54.825Z,34
2023-05-03T06:21:01.671Z,27
2023-05-03T06:22:08.452Z,25
2023-05-03T06:23:15.292Z,34
2023-05-03T06:24:22.089Z,34
2023-05-03T06:25:28.915Z,37
2023-05-03T06:26:35.737Z,29
2023-05-03T06:27:42.590Z,25
2023-05-03T06:28:49.380Z,36
2023-05-03T06:29:56.187Z,37
2023-05-03T06:31:02.971Z,37
2023-05-03T06:32:09.757Z,32
2023-05-03T06:33:16.542Z,40
2023-05-03T06:34:23.431Z,34
2023-05-03T06:35:30.165Z,33
2023-05-03T06:36:37.894Z,25
2023-05-03T06:37:44.646Z,26
2023-05-03T06:38:51.409Z,36
2023-05-03T06:39:58.282Z,27
2023-05-03T06:41:05.164Z,38
2023-05-03T06:42:11.950Z,34
2023-05-03T06:43:18.705Z,35
2023-05-03T06:44:25.537Z,31
2023-05-03T06:45:32.623Z,29
2023-05-03T06:46:39.374Z,28
2023-05-03T06:47:46.333Z,25
2023-05-03T06:48:53.179Z,35
2023-05-03T06:49:59.909Z,32
2023-05-03T06:51:06.614Z,29
2023-05-03T06:52:13.401Z,32
2023-05-03T06:53:20.164Z,29
2023-05-03T06:54:26.909Z,29
2023-05-03T06:55:33.682Z,37
2023-05-03T06:56:40.438Z,30
2023-05-03T06:57:47.221Z,31
2023-05-03T06:58:53.974Z,28
2023-05-03T07:00:01.006Z,31
2023-05-03T07:01:07.798Z,28
2023-05-03T07:02:14.529Z,37
2023-05-03T07:03:21.574Z,34
2023-05-03T07:04:28.128Z,40
2023-05-03T07:05:34.963Z,42
2023-05-03T07:06:55.045Z,31
2023-05-03T07:07:48.477Z,36
2023-05-03T07:08:55.252Z,43
2023-05-03T07:10:02.220Z,42
2023-05-03T07:11:09.076Z,45
2023-05-03T07:12:15.807Z,41
2023-05-03T07:13:22.674Z,39
2023-05-03T07:14:29.437Z,42
2023-05-03T07:15:36.147Z,37
2023-05-03T07:16:43.099Z,41
2023-05-03T07:17:49.846Z,38
2023-05-03T07:18:56.569Z,37
2023-05-03T07:20:03.544Z,40
2023-05-03T07:21:10.620Z,32
2023-05-03T07:22:17.396Z,31
2023-05-03T07:23:29.323Z,39
2023-05-03T07:24:36.219Z,43
2023-05-03T07:25:43.054Z,30
2023-05-03T07:26:49.780Z,34
2023-05-03T07:27:56.567Z,25
2023-05-03T07:29:07.086Z,30
2023-05-03T07:30:39.847Z,30
2023-05-03T07:31:46.768Z,27
2023-05-03T07:32:53.771Z,31
2023-05-03T07:34:03.679Z,29
2023-05-03T07:35:10.465Z,29
2023-05-03T07:36:17.408Z,25
2023-05-03T07:37:24.369Z,32
2023-05-03T07:38:31.277Z,35
2023-05-03T07:39:38.141Z,32
2023-05-03T07:40:50.444Z,41
2023-05-03T07:41:58.378Z,28
2023-05-03T07:43:05.326Z,41
2023-05-03T07:44:12.182Z,32
2023-05-03T07:45:19.135Z,39
2023-05-03T07:46:26.181Z,40
2023-05-03T07:47:33.032Z,39
2023-05-03T07:48:39.907Z,25
2023-05-03T07:49:46.734Z,27
2023-05-03T07:50:53.667Z,30
2023-05-03T07:52:00.540Z,28
2023-05-03T07:53:10.274Z,38
2023-05-03T07:54:17.194Z,40
2023-05-03T07:55:24.085Z,32
2023-05-03T07:56:31.017Z,32
2023-05-03T07:57:38.167Z,33
2023-05-03T07:58:46.804Z,30
2023-05-03T07:59:51.913Z,25
2023-05-03T08:00:58.904Z,26
2023-05-03T08:02:06.707Z,31
2023-05-03T08:03:13.847Z,29
2023-05-03T08:04:20.560Z,33
2023-05-03T08:05:27.438Z,25
2023-05-03T08:06:35.083Z,43
2023-05-03T08:07:42.707Z,36
2023-05-03T08:08:49.670Z,37
2023-05-03T08:09:56.735Z,29
2023-05-03T08:11:03.578Z,37
2023-05-03T08:12:10.483Z,30
2023-05-03T08:13:17.388Z,29
2023-05-03T08:14:24.272Z,33
2023-05-03T08:15:31.196Z,42
2023-05-03T08:16:39.005Z,25
2023-05-03T08:17:45.851Z,25
2023-05-03T08:18:52.774Z,26
2023-05-03T08:19:59.596Z,36
2023-05-03T08:21:06.510Z,42
2023-05-03T08:22:13.565Z,29
2023-05-03T08:23:20.457Z,41
2023-05-03T08:24:27.378Z,33
2023-05-03T08:25:34.229Z,31
2023-05-03T08:26:41.028Z,34
2023-05-03T08:27:47.879Z,34
2023-05-03T08:28:54.824Z,33
2023-05-03T08:30:01.845Z,34
2023-05-03T08:31:09.106Z,25
2023-05-03T08:32:16.438Z,25
2023-05-03T08:33:23.456Z,31
2023-05-03T08:34:30.364Z,25
2023-05-03T08:35:37.186Z,25
2023-05-03T08:36:44.010Z,31
2023-05-03T08:37:50.818Z,33
2023-05-03T08:38:57.749Z,25
2023-05-03T08:40:04.898Z,28
2023-05-03T08:41:15.718Z,26
2023-05-03T08:42:25.925Z,25
2023-05-03T08:43:32.781Z,31
2023-05-03T08:44:39.717Z,26
2023-05-03T08:45:49.338Z,27
2023-05-03T08:46:56.186Z,26
2023-05-03T08:48:03.086Z,28
2023-05-03T08:49:09.874Z,27
2023-05-03T08:50:16.765Z,28
2023-05-03T08:51:23.546Z,35
2023-05-03T08:52:30.350Z,29
2023-05-03T08:53:37.225Z,31
2023-05-03T08:54:45.380Z,38
2023-05-03T08:55:50.971Z,32
2023-05-03T08:56:57.778Z,30
2023-05-03T08:58:04.590Z,27
2023-05-03T08:59:11.512Z,25
2023-05-03T09:00:18.296Z,35
2023-05-03T09:01:25.377Z,25
2023-05-03T09:02:33.418Z,30
2023-05-03T09:03:40.269Z,30
2023-05-03T09:04:47.152Z,26
2023-05-03T09:05:54.883Z,33
2023-05-03T09:07:01.622Z,29
2023-05-03T09:08:14.126Z,25
2023-05-03T09:09:21.050Z,30
2023-05-03T09:10:27.975Z,39
2023-05-03T09:11:34.805Z,26
2023-05-03T09:12:41.866Z,32
2023-05-03T09:13:48.702Z,28
2023-05-03T09:14:55.602Z,28
2023-05-03T09:16:03.437Z,30
2023-05-03T09:17:10.497Z,25
2023-05-03T09:18:20.730Z,28
2023-05-03T09:19:27.472Z,48
2023-05-03T09:20:34.400Z,25
2023-05-03T09:21:41.241Z,25
2023-05-03T09:22:49.286Z,36
2023-05-03T09:23:56.128Z,25
2023-05-03T09:25:04.303Z,25
2023-05-03T09:26:11.425Z,25
2023-05-03T09:27:18.261Z,25
2023-05-03T09:28:25.175Z,37
2023-05-03T09:29:32.102Z,28
2023-05-03T09:30:39.890Z,30
2023-05-03T09:31:46.767Z,32
2023-05-03T09:32:53.677Z,25
2023-05-03T09:34:00.585Z,47
2023-05-03T09:35:07.510Z,35
2023-05-03T09:36:14.491Z,25
2023-05-03T09:37:21.442Z,29
2023-05-03T09:38:28.264Z,39
2023-05-03T09:39:35.071Z,46
2023-05-03T09:40:42.002Z,46
2023-05-03T09:41:51.643Z,30
2023-05-03T09:42:58.374Z,25
2023-05-03T09:44:13.418Z,25
2023-05-03T09:45:20.305Z,30
2023-05-03T09:46:27.383Z,25
2023-05-03T09:47:34.187Z,29
2023-05-03T09:48:41.086Z,38
2023-05-03T09:49:47.930Z,35
2023-05-03T09:50:54.804Z,36
2023-05-03T09:52:01.710Z,31
2023-05-03T09:53:08.693Z,29
2023-05-03T09:54:15.362Z,35
2023-05-03T09:55:22.270Z,29
2023-05-03T09:56:29.243Z,30
2023-05-03T09:57:37.249Z,36
2023-05-03T09:58:44.218Z,30
2023-05-03T09:59:51.110Z,31
2023-05-03T10:00:58.881Z,36
2023-05-03T10:02:05.784Z,29
2023-05-03T10:03:12.714Z,26
2023-05-03T10:04:19.584Z,25
2023-05-03T10:05:26.478Z,29
2023-05-03T10:06:33.463Z,33
2023-05-03T10:07:44.077Z,35
2023-05-03T10:08:51.048Z,46
2023-05-03T10:10:08.975Z,46
2023-05-03T10:11:15.844Z,32
2023-05-03T10:12:22.826Z,25
2023-05-03T10:13:29.832Z,33
2023-05-03T10:14:36.786Z,36
2023-05-03T10:15:43.745Z,25
2023-05-03T10:16:53.763Z,37
2023-05-03T10:18:05.272Z,26
2023-05-03T10:19:14.341Z,29
2023-05-03T10:20:25.019Z,25
2023-05-03T10:21:35.528Z,39
2023-05-03T10:22:50.209Z,33
2023-05-03T10:24:08.486Z,30
2023-05-03T10:25:17.927Z,25
2023-05-03T10:26:31.124Z,26
2023-05-03T10:27:41.520Z,29
2023-05-03T10:28:51.318Z,25
2023-05-03T10:29:59.475Z,25
2023-05-03T10:31:06.464Z,26
2023-05-03T10:32:23.604Z,31
2023-05-03T10:33:38.562Z,32
2023-05-03T10:34:46.479Z,34
2023-05-03T10:35:52.389Z,32
2023-05-03T10:36:59.187Z,40
2023-05-03T10:38:07.369Z,32
2023-05-03T10:39:20.289Z,25
2023-05-03T10:40:27.017Z,26
2023-05-03T10:41:44.216Z,30
2023-05-03T10:42:59.061Z,27
2023-05-03T10:44:05.956Z,27
2023-05-03T10:45:23.220Z,33
2023-05-03T10:46:30.100Z,36
2023-05-03T10:47:36.904Z,35
2023-05-03T10:48:43.739Z,30
2023-05-03T10:49:50.584Z,36
2023-05-03T10:51:02.585Z,30
2023-05-03T10:52:19.841Z,28
2023-05-03T10:53:37.055Z,29
2023-05-03T10:54:45.034Z,31
2023-05-03T10:55:53.532Z,37
2023-05-03T10:57:05.474Z,43
2023-05-03T10:58:13.272Z,29
2023-05-03T10:59:20.081Z,36
2023-05-03T11:00:26.968Z,33
2023-05-03T11:01:36.719Z,25
2023-05-03T11:02:43.674Z,34
2023-05-03T11:04:00.280Z,40
2023-05-03T11:05:17.327Z,36
2023-05-03T11:06:24.208Z,36
2023-05-03T11:07:39.259Z,35
2023-05-03T11:08:46.973Z,25
2023-05-03T11:09:53.922Z,32
2023-05-03T11:11:01.559Z,34
2023-05-03T11:12:11.353Z,33
2023-05-03T11:13:18.291Z,32
2023-05-03T11:14:25.222Z,26
2023-05-03T11:15:32.178Z,26
2023-05-03T11:16:39.171Z,31
2023-05-03T11:17:46.038Z,25
2023-05-03T11:18:53.721Z,35
2023-05-03T11:20:00.604Z,39
2023-05-03T11:21:08.659Z,29
2023-05-03T11:22:15.602Z,25
2023-05-03T11:23:22.471Z,40
2023-05-03T11:24:31.938Z,38
2023-05-03T11:25:40.034Z,31
2023-05-03T11:26:47.143Z,36
2023-05-03T11:27:54.798Z,40
2023-05-03T11:29:01.673Z,30
2023-05-03T11:30:08.550Z,45
2023-05-03T11:31:15.636Z,35
2023-05-03T11:32:22.640Z,27
2023-05-03T11:33:29.320Z,35
2023-05-03T11:34:36.282Z,43
2023-05-03T11:35:43.142Z,34
2023-05-03T11:36:50.064Z,28
2023-05-03T11:37:56.876Z,25
2023-05-03T11:39:03.620Z,25
2023-05-03T11:40:10.529Z,25
2023-05-03T11:41:17.439Z,32
2023-05-03T11:42:24.168Z,32
2023-05-03T11:43:30.933Z,25
2023-05-03T11:44:37.829Z,31
2023-05-03T11:45:45.137Z,30
2023-05-03T11:46:51.802Z,39
2023-05-03T11:47:58.476Z,26
2023-05-03T11:49:05.329Z,34
2023-05-03T11:50:12.225Z,35
2023-05-03T11:51:19.149Z,34
2023-05-03T11:52:25.890Z,31
2023-05-03T11:53:32.683Z,30
2023-05-03T11:54:39.729Z,33
2023-05-03T11:55:46.620Z,27
2023-05-03T11:56:53.521Z,33
2023-05-03T11:58:00.294Z,39
2023-05-03T11:59:07.100Z,39
2023-05-03T12:00:13.983Z,27
2023-05-03T12:01:20.948Z,25
2023-05-03T12:02:27.973Z,29
2023-05-03T12:03:34.850Z,31
2023-05-03T12:04:42.667Z,37
2023-05-03T12:05:49.268Z,25
2023-05-03T12:06:56.351Z,28
2023-05-03T12:08:02.787Z,32
2023-05-03T12:09:10.078Z,26
2023-05-03T12:10:21.332Z,31
2023-05-03T12:11:27.461Z,32
2023-05-03T12:12:35.839Z,27
2023-05-03T12:13:40.641Z,29
2023-05-03T12:14:46.979Z,40
2023-05-03T12:16:10.612Z,38
2023-05-03T12:17:07.438Z,33
2023-05-03T12:18:13.103Z,25
2023-05-03T12:19:22.972Z,31
2023-05-03T12:20:51.752Z,28
2023-05-03T12:21:37.528Z,28
2023-05-03T12:22:50.550Z,29
2023-05-03T12:23:57.128Z,29
2023-05-03T12:25:04.264Z,32
2023-05-03T12:26:10.283Z,39
2023-05-03T12:27:19.209Z,26
2023-05-03T12:28:24.066Z,34
2023-05-03T12:29:32.818Z,39
2023-05-03T12:30:39.990Z,48
2023-05-03T12:31:44.779Z,40
2023-05-03T12:32:51.537Z,35
2023-05-03T12:35:08.066Z,35
2023-05-03T12:36:15.090Z,25
2023-05-03T12:37:22.471Z,42
2023-05-03T12:38:30.973Z,30
2023-05-03T12:39:39.473Z,28
2023-05-03T12:40:42.500Z,38
2023-05-03T12:42:56.106Z,33
2023-05-03T12:44:03.179Z,40
2023-05-03T12:45:12.338Z,29
2023-05-03T12:46:31.985Z,31
2023-05-03T12:47:28.684Z,33
2023-05-03T12:48:32.664Z,30
2023-05-03T12:49:38.884Z,42
2023-05-03T12:50:45.356Z,29
2023-05-03T12:52:02.796Z,29
2023-05-03T12:54:06.020Z,34
2023-05-03T12:55:12.153Z,25
2023-05-03T12:57:27.856Z,29
2023-05-03T12:58:55.774Z,26
2023-05-03T12:59:41.537Z,30
2023-05-03T13:01:15.678Z,25
2023-05-03T13:04:36.832Z,33
2023-05-03T13:05:26.316Z,29
2023-05-03T13:06:21.882Z,36
2023-05-03T13:07:29.938Z,48
2023-05-03T13:08:35.671Z,46
2023-05-03T13:10:51.789Z,31
2023-05-03T13:11:58.704Z,28
2023-05-03T13:13:05.564Z,26
2023-05-03T13:14:12.471Z,46
2023-05-03T13:15:19.344Z,25
2023-05-03T13:16:26.194Z,25
2023-05-03T13:17:33.207Z,27
2023-05-03T13:18:39.950Z,33
2023-05-03T13:19:46.998Z,30
2023-05-03T13:20:53.760Z,31
2023-05-03T13:22:00.705Z,34
2023-05-03T13:23:07.547Z,47
2023-05-03T13:24:14.417Z,38
2023-05-03T13:25:21.276Z,40
2023-05-03T13:26:33.176Z,33
2023-05-03T13:27:40.077Z,26
2023-05-03T13:28:46.999Z,25
2023-05-03T13:29:58.383Z,26
2023-05-03T13:31:05.459Z,37
2023-05-03T13:32:12.380Z,32
2023-05-03T13:33:19.353Z,31
2023-05-03T13:34:26.317Z,26
2023-05-03T13:35:33.144Z,36
2023-05-03T13:36:40.098Z,36
2023-05-03T13:37:46.913Z,25
2023-05-03T13:38:56.616Z,37
2023-05-03T13:40:03.720Z,31
2023-05-03T13:41:10.876Z,32
2023-05-03T13:42:18.791Z,25
2023-05-03T13:43:25.652Z,32
2023-05-03T13:44:38.002Z,25
2023-05-03T13:45:44.965Z,39
2023-05-03T13:46:53.310Z,25
2023-05-03T13:48:10.613Z,31
2023-05-03T13:49:12.482Z,42
2023-05-03T13:50:19.469Z,34
2023-05-03T13:51:30.732Z,30
2023-05-03T13:52:37.729Z,30
2023-05-03T13:53:44.621Z,46
2023-05-03T13:54:55.202Z,37
2023-05-03T13:56:05.816Z,42
2023-05-03T13:57:12.823Z,41
2023-05-03T13:58:19.927Z,47
2023-05-03T13:59:26.931Z,28
2023-05-03T14:00:35.277Z,40
2023-05-03T14:01:42.345Z,41
2023-05-03T14:02:49.412Z,31
2023-05-03T14:03:56.262Z,39
2023-05-03T14:05:03.386Z,34
2023-05-03T14:06:11.295Z,35
2023-05-03T14:07:18.216Z,28
2023-05-03T14:08:25.141Z,28
2023-05-03T14:09:32.046Z,26
2023-05-03T14:10:38.922Z,29
2023-05-03T14:11:45.943Z,25
2023-05-03T14:12:53.114Z,38
2023-05-03T14:14:03.645Z,27
2023-05-03T14:15:10.254Z,37
2023-05-03T14:16:19.569Z,38
2023-05-03T14:17:24.978Z,37
2023-05-03T14:18:31.810Z,47
2023-05-03T14:19:38.641Z,38
2023-05-03T14:20:45.509Z,43
2023-05-03T14:21:52.389Z,53
2023-05-03T14:23:02.057Z,47
2023-05-03T14:24:08.955Z,46
2023-05-03T14:25:15.869Z,30
2023-05-03T14:26:22.798Z,31
2023-05-03T14:27:29.917Z,30
2023-05-03T14:28:36.860Z,31
2023-05-03T14:29:43.857Z,35
2023-05-03T14:30:53.987Z,29
2023-05-03T14:32:01.001Z,25
2023-05-03T14:33:08.164Z,26
2023-05-03T14:34:19.399Z,28
2023-05-03T14:35:26.341Z,42
2023-05-03T14:36:33.348Z,40
2023-05-03T14:37:43.313Z,46
2023-05-03T14:38:50.549Z,50
2023-05-03T14:40:02.504Z,28
2023-05-03T14:41:09.645Z,42
2023-05-03T14:42:17.362Z,32
2023-05-03T14:43:24.361Z,38
2023-05-03T14:44:31.306Z,25
2023-05-03T14:45:38.232Z,32
2023-05-03T14:46:46.335Z,50
2023-05-03T14:47:53.219Z,49
2023-05-03T14:49:04.151Z,29
2023-05-03T14:50:12.270Z,35
2023-05-03T14:51:19.457Z,45
2023-05-03T14:52:27.637Z,42
2023-05-03T14:53:38.928Z,38
2023-05-03T14:54:47.005Z,35
2023-05-03T14:55:56.804Z,32
2023-05-03T14:57:03.849Z,27
2023-05-03T14:58:10.863Z,29
2023-05-03T14:59:21.457Z,43
2023-05-03T15:00:28.715Z,46
2023-05-03T15:01:35.665Z,34
2023-05-03T15:02:42.807Z,48
2023-05-03T15:03:54.086Z,40
2023-05-03T15:05:01.162Z,26
2023-05-03T15:06:08.452Z,28
2023-05-03T15:07:15.556Z,25
2023-05-03T15:08:22.537Z,43
2023-05-03T15:09:29.478Z,48
2023-05-03T15:10:36.685Z,37
2023-05-03T15:11:43.520Z,25
2023-05-03T15:12:50.567Z,41
2023-05-03T15:13:57.508Z,36
2023-05-03T15:15:04.299Z,43
2023-05-03T15:16:12.655Z,45
2023-05-03T15:17:19.643Z,28
2023-05-03T15:18:26.534Z,35
2023-05-03T15:19:33.498Z,40
2023-05-03T15:20:41.275Z,39
2023-05-03T15:21:48.259Z,40
2023-05-03T15:22:55.269Z,33
2023-05-03T15:24:02.179Z,30
2023-05-03T15:25:09.110Z,27
2023-05-03T15:26:16.981Z,25
2023-05-03T15:27:25.444Z,36
2023-05-03T15:28:32.669Z,35
2023-05-03T15:29:44.036Z,43
2023-05-03T15:30:51.037Z,25
2023-05-03T15:31:57.772Z,30
2023-05-03T15:33:04.730Z,42
2023-05-03T15:34:11.451Z,41
2023-05-03T15:35:18.376Z,41
2023-05-03T15:36:25.550Z,40
2023-05-03T15:37:32.392Z,37
2023-05-03T15:38:42.946Z,43
2023-05-03T15:39:51.172Z,39
2023-05-03T15:40:58.125Z,40
2023-05-03T15:42:05.029Z,45
2023-05-03T15:43:11.936Z,43
2023-05-03T15:44:19.649Z,44
2023-05-03T15:45:26.580Z,35
2023-05-03T15:46:33.437Z,40
2023-05-03T15:47:40.272Z,38
2023-05-03T15:48:47.293Z,27
2023-05-03T15:49:54.132Z,28
2023-05-03T15:51:01.360Z,36
2023-05-03T15:52:09.294Z,32
2023-05-03T15:53:16.265Z,25
2023-05-03T15:54:23.179Z,32
2023-05-03T15:55:30.260Z,42
2023-05-03T15:56:38.500Z,57
2023-05-03T15:57:46.058Z,36
2023-05-03T15:58:53.798Z,39
2023-05-03T16:00:00.778Z,38
2023-05-03T16:01:09.683Z,38
2023-05-03T16:02:16.524Z,37
2023-05-03T16:03:23.453Z,40
2023-05-03T16:04:30.389Z,32
2023-05-03T16:05:37.201Z,28
2023-05-03T16:06:45.579Z,40
2023-05-03T16:07:52.561Z,25
2023-05-03T16:08:59.552Z,31
2023-05-03T16:10:06.904Z,25